sensor_id;sensor_type;location;lat;lon;timestamp;P1;durP1;ratioP1;P2;durP2;ratioP2
32693;SDS011;19084;44.716;10.218;2022-07-17T06:01:13;9.25;;;5.78;;
32693;SDS011;19084;44.716;10.218;2022-07-17T09:49:42;9.95;;;4.70;;
32693;SDS011;19084;44.716;10.218;2022-07-17T09:52:16;10.25;;;4.97;;
32693;SDS011;19084;44.716;10.218;2022-07-17T09:54:51;6.55;;;4.40;;
32693;SDS011;19084;44.716;10.218;2022-07-17T09:57:44;7.30;;;4.10;;
32693;SDS011;19084;44.716;10.218;2022-07-17T10:00:21;10.63;;;4.90;;
32693;SDS011;19084;44.716;10.218;2022-07-17T10:02:55;9.80;;;3.90;;
32693;SDS011;19084;44.716;10.218;2022-07-17T10:05:28;10.38;;;4.82;;
32693;SDS011;19084;44.716;10.218;2022-07-17T10:08:02;8.50;;;4.03;;
32693;SDS011;19084;44.716;10.218;2022-07-17T10:10:36;8.15;;;4.00;;
32693;SDS011;19084;44.716;10.218;2022-07-17T10:13:10;9.57;;;4.30;;
32693;SDS011;19084;44.716;10.218;2022-07-17T10:15:45;9.52;;;4.47;;
32693;SDS011;19084;44.716;10.218;2022-07-17T10:21:14;10.15;;;4.03;;
32693;SDS011;19084;44.716;10.218;2022-07-17T10:26:32;7.53;;;4.28;;
32693;SDS011;19084;44.716;10.218;2022-07-17T10:31:59;8.85;;;4.53;;
32693;SDS011;19084;44.716;10.218;2022-07-17T10:34:36;11.68;;;4.20;;
32693;SDS011;19084;44.716;10.218;2022-07-17T10:37:20;8.88;;;4.20;;
32693;SDS011;19084;44.716;10.218;2022-07-17T10:40:06;14.25;;;4.50;;
32693;SDS011;19084;44.716;10.218;2022-07-17T10:42:44;9.05;;;4.20;;
32693;SDS011;19084;44.716;10.218;2022-07-17T10:45:41;8.10;;;4.45;;
32693;SDS011;19084;44.716;10.218;2022-07-17T10:48:22;9.63;;;4.30;;
32693;SDS011;19084;44.716;10.218;2022-07-17T11:16:56;13.30;;;4.70;;
32693;SDS011;19084;44.716;10.218;2022-07-17T11:19:30;11.93;;;4.82;;
32693;SDS011;19084;44.716;10.218;2022-07-17T11:22:06;10.43;;;4.85;;
32693;SDS011;19084;44.716;10.218;2022-07-17T11:27:24;11.48;;;5.05;;
32693;SDS011;19084;44.716;10.218;2022-07-17T11:29:59;9.57;;;4.47;;
32693;SDS011;19084;44.716;10.218;2022-07-17T11:32:33;11.15;;;4.25;;
32693;SDS011;19084;44.716;10.218;2022-07-17T11:35:17;10.43;;;4.53;;
32693;SDS011;19084;44.716;10.218;2022-07-17T11:38:10;6.50;;;4.38;;
32693;SDS011;19084;44.716;10.218;2022-07-17T11:40:47;7.53;;;4.55;;
32693;SDS011;19084;44.716;10.218;2022-07-17T11:43:38;11.15;;;4.38;;
32693;SDS011;19084;44.716;10.218;2022-07-17T11:46:12;6.82;;;4.20;;
32693;SDS011;19084;44.716;10.218;2022-07-17T11:51:41;9.70;;;4.75;;
32693;SDS011;19084;44.716;10.218;2022-07-17T11:54:17;10.32;;;3.95;;
32693;SDS011;19084;44.716;10.218;2022-07-17T11:56:57;11.75;;;4.18;;
32693;SDS011;19084;44.716;10.218;2022-07-17T11:59:31;14.25;;;4.30;;
32693;SDS011;19084;44.716;10.218;2022-07-17T12:02:09;7.70;;;3.80;;
32693;SDS011;19084;44.716;10.218;2022-07-17T12:04:54;10.18;;;4.15;;
32693;SDS011;19084;44.716;10.218;2022-07-17T12:07:47;9.10;;;4.05;;
32693;SDS011;19084;44.716;10.218;2022-07-17T12:10:21;8.13;;;3.90;;
32693;SDS011;19084;44.716;10.218;2022-07-17T12:12:56;9.98;;;4.22;;
32693;SDS011;19084;44.716;10.218;2022-07-17T12:15:38;11.30;;;4.22;;
32693;SDS011;19084;44.716;10.218;2022-07-17T12:18:27;12.02;;;4.30;;
32693;SDS011;19084;44.716;10.218;2022-07-17T12:21:02;15.68;;;4.18;;
32693;SDS011;19084;44.716;10.218;2022-07-17T12:23:38;8.82;;;3.90;;
32693;SDS011;19084;44.716;10.218;2022-07-17T12:26:14;12.43;;;4.88;;
32693;SDS011;19084;44.716;10.218;2022-07-17T12:28:50;9.38;;;4.30;;
32693;SDS011;19084;44.716;10.218;2022-07-17T12:31:30;9.73;;;3.90;;
32693;SDS011;19084;44.716;10.218;2022-07-17T12:34:04;10.03;;;4.07;;
32693;SDS011;19084;44.716;10.218;2022-07-17T12:36:38;14.38;;;3.97;;
32693;SDS011;19084;44.716;10.218;2022-07-17T12:39:11;9.65;;;3.90;;
32693;SDS011;19084;44.716;10.218;2022-07-17T12:41:44;13.93;;;4.22;;
32693;SDS011;19084;44.716;10.218;2022-07-17T12:44:18;9.88;;;4.15;;
32693;SDS011;19084;44.716;10.218;2022-07-17T12:46:51;10.82;;;3.95;;
32693;SDS011;19084;44.716;10.218;2022-07-17T12:49:25;12.77;;;3.88;;
32693;SDS011;19084;44.716;10.218;2022-07-17T12:51:59;11.50;;;4.40;;
32693;SDS011;19084;44.716;10.218;2022-07-17T12:54:33;12.35;;;4.00;;
32693;SDS011;19084;44.716;10.218;2022-07-17T12:57:06;13.10;;;4.20;;
32693;SDS011;19084;44.716;10.218;2022-07-17T12:59:39;16.42;;;4.57;;
32693;SDS011;19084;44.716;10.218;2022-07-17T13:02:18;13.30;;;4.43;;
32693;SDS011;19084;44.716;10.218;2022-07-17T13:04:52;12.65;;;4.20;;
32693;SDS011;19084;44.716;10.218;2022-07-17T13:07:32;10.32;;;4.15;;
32693;SDS011;19084;44.716;10.218;2022-07-17T13:10:05;7.75;;;3.65;;
32693;SDS011;19084;44.716;10.218;2022-07-17T13:12:39;8.00;;;3.85;;
32693;SDS011;19084;44.716;10.218;2022-07-17T13:15:12;11.93;;;4.65;;
32693;SDS011;19084;44.716;10.218;2022-07-17T13:17:48;8.80;;;3.60;;
32693;SDS011;19084;44.716;10.218;2022-07-17T13:20:22;12.43;;;3.85;;
32693;SDS011;19084;44.716;10.218;2022-07-17T13:22:56;11.65;;;3.63;;
32693;SDS011;19084;44.716;10.218;2022-07-17T13:25:29;10.77;;;3.92;;
32693;SDS011;19084;44.716;10.218;2022-07-17T13:28:03;8.13;;;3.58;;
32693;SDS011;19084;44.716;10.218;2022-07-17T13:30:37;8.57;;;3.90;;
32693;SDS011;19084;44.716;10.218;2022-07-17T13:33:10;9.38;;;3.83;;
32693;SDS011;19084;44.716;10.218;2022-07-17T13:35:43;11.93;;;3.78;;
32693;SDS011;19084;44.716;10.218;2022-07-17T13:38:17;6.50;;;2.85;;
32693;SDS011;19084;44.716;10.218;2022-07-17T13:40:51;12.50;;;3.97;;
32693;SDS011;19084;44.716;10.218;2022-07-17T13:43:24;8.80;;;3.75;;
32693;SDS011;19084;44.716;10.218;2022-07-17T13:45:57;9.15;;;3.30;;
32693;SDS011;19084;44.716;10.218;2022-07-17T13:48:30;8.50;;;3.50;;
32693;SDS011;19084;44.716;10.218;2022-07-17T14:10:26;11.02;;;3.95;;
32693;SDS011;19084;44.716;10.218;2022-07-17T14:13:01;10.93;;;4.03;;
32693;SDS011;19084;44.716;10.218;2022-07-17T14:15:34;8.25;;;4.13;;
32693;SDS011;19084;44.716;10.218;2022-07-17T14:18:08;7.82;;;3.20;;
32693;SDS011;19084;44.716;10.218;2022-07-17T14:20:43;6.75;;;3.53;;
32693;SDS011;19084;44.716;10.218;2022-07-17T14:23:16;9.82;;;3.60;;
32693;SDS011;19084;44.716;10.218;2022-07-17T14:25:50;9.82;;;3.53;;
32693;SDS011;19084;44.716;10.218;2022-07-17T14:28:23;9.88;;;3.60;;
32693;SDS011;19084;44.716;10.218;2022-07-17T14:30:57;10.30;;;3.80;;
32693;SDS011;19084;44.716;10.218;2022-07-17T14:33:30;7.50;;;3.60;;
32693;SDS011;19084;44.716;10.218;2022-07-17T14:36:04;11.13;;;3.40;;
32693;SDS011;19084;44.716;10.218;2022-07-17T14:38:37;10.73;;;3.90;;
32693;SDS011;19084;44.716;10.218;2022-07-17T14:41:11;10.63;;;3.78;;
32693;SDS011;19084;44.716;10.218;2022-07-17T14:43:45;8.67;;;3.30;;
32693;SDS011;19084;44.716;10.218;2022-07-17T14:46:20;8.10;;;3.90;;
32693;SDS011;19084;44.716;10.218;2022-07-17T14:48:55;7.43;;;3.40;;
32693;SDS011;19084;44.716;10.218;2022-07-17T14:51:29;6.97;;;3.22;;
32693;SDS011;19084;44.716;10.218;2022-07-17T14:54:03;6.97;;;3.03;;
32693;SDS011;19084;44.716;10.218;2022-07-17T14:56:36;11.10;;;3.67;;
32693;SDS011;19084;44.716;10.218;2022-07-17T14:59:12;7.63;;;3.67;;
32693;SDS011;19084;44.716;10.218;2022-07-17T15:01:46;6.93;;;3.63;;
32693;SDS011;19084;44.716;10.218;2022-07-17T15:04:20;12.73;;;4.10;;
32693;SDS011;19084;44.716;10.218;2022-07-17T15:06:56;9.52;;;3.45;;
32693;SDS011;19084;44.716;10.218;2022-07-17T15:09:35;6.90;;;3.15;;
32693;SDS011;19084;44.716;10.218;2022-07-17T15:12:09;8.98;;;3.70;;
32693;SDS011;19084;44.716;10.218;2022-07-17T15:14:43;6.68;;;3.58;;
32693;SDS011;19084;44.716;10.218;2022-07-17T15:17:23;7.25;;;3.42;;
32693;SDS011;19084;44.716;10.218;2022-07-17T15:19:57;8.35;;;3.80;;
32693;SDS011;19084;44.716;10.218;2022-07-17T15:22:31;7.65;;;3.28;;
32693;SDS011;19084;44.716;10.218;2022-07-17T15:25:08;10.05;;;3.50;;
32693;SDS011;19084;44.716;10.218;2022-07-17T15:27:41;11.07;;;3.30;;
32693;SDS011;19084;44.716;10.218;2022-07-17T15:30:15;10.80;;;3.38;;
32693;SDS011;19084;44.716;10.218;2022-07-17T15:32:49;8.30;;;3.30;;
32693;SDS011;19084;44.716;10.218;2022-07-17T15:35:24;9.30;;;3.38;;
32693;SDS011;19084;44.716;10.218;2022-07-17T15:37:59;8.05;;;3.17;;
32693;SDS011;19084;44.716;10.218;2022-07-17T15:40:36;8.15;;;3.25;;
32693;SDS011;19084;44.716;10.218;2022-07-17T15:43:10;9.02;;;3.70;;
32693;SDS011;19084;44.716;10.218;2022-07-17T15:45:43;7.15;;;3.15;;
32693;SDS011;19084;44.716;10.218;2022-07-17T15:48:17;8.02;;;3.55;;
32693;SDS011;19084;44.716;10.218;2022-07-17T15:50:50;7.78;;;3.20;;
32693;SDS011;19084;44.716;10.218;2022-07-17T15:53:23;5.80;;;3.17;;
32693;SDS011;19084;44.716;10.218;2022-07-17T15:55:57;8.90;;;3.38;;
32693;SDS011;19084;44.716;10.218;2022-07-17T15:58:30;8.13;;;3.42;;
32693;SDS011;19084;44.716;10.218;2022-07-17T16:01:03;9.15;;;3.20;;
32693;SDS011;19084;44.716;10.218;2022-07-17T16:03:37;7.75;;;3.25;;
32693;SDS011;19084;44.716;10.218;2022-07-17T16:06:19;11.98;;;3.70;;
32693;SDS011;19084;44.716;10.218;2022-07-17T16:08:53;6.95;;;3.38;;
32693;SDS011;19084;44.716;10.218;2022-07-17T16:11:27;10.10;;;3.58;;
32693;SDS011;19084;44.716;10.218;2022-07-17T16:14:01;11.10;;;3.67;;
32693;SDS011;19084;44.716;10.218;2022-07-17T16:16:34;9.98;;;3.08;;
32693;SDS011;19084;44.716;10.218;2022-07-17T16:19:07;10.77;;;3.60;;
32693;SDS011;19084;44.716;10.218;2022-07-17T16:21:41;11.80;;;3.75;;
32693;SDS011;19084;44.716;10.218;2022-07-17T16:24:14;13.35;;;3.33;;
32693;SDS011;19084;44.716;10.218;2022-07-17T16:26:47;9.40;;;3.80;;
32693;SDS011;19084;44.716;10.218;2022-07-17T16:29:21;8.85;;;3.10;;
32693;SDS011;19084;44.716;10.218;2022-07-17T16:31:54;9.70;;;3.40;;
32693;SDS011;19084;44.716;10.218;2022-07-17T16:34:28;7.20;;;3.00;;
32693;SDS011;19084;44.716;10.218;2022-07-17T16:37:01;6.40;;;3.38;;
32693;SDS011;19084;44.716;10.218;2022-07-17T16:39:34;7.03;;;3.38;;
32693;SDS011;19084;44.716;10.218;2022-07-17T16:42:11;9.02;;;3.30;;
32693;SDS011;19084;44.716;10.218;2022-07-17T16:44:45;7.35;;;3.40;;
32693;SDS011;19084;44.716;10.218;2022-07-17T16:47:19;11.70;;;3.60;;
32693;SDS011;19084;44.716;10.218;2022-07-17T16:49:52;9.02;;;3.17;;
32693;SDS011;19084;44.716;10.218;2022-07-17T16:52:28;6.82;;;2.92;;
32693;SDS011;19084;44.716;10.218;2022-07-17T16:55:02;6.45;;;2.90;;
32693;SDS011;19084;44.716;10.218;2022-07-17T16:57:36;8.50;;;3.58;;
32693;SDS011;19084;44.716;10.218;2022-07-17T17:00:10;10.85;;;3.40;;
32693;SDS011;19084;44.716;10.218;2022-07-17T17:02:43;8.45;;;3.65;;
32693;SDS011;19084;44.716;10.218;2022-07-17T17:05:17;8.18;;;3.50;;
32693;SDS011;19084;44.716;10.218;2022-07-17T17:07:50;8.35;;;3.60;;
32693;SDS011;19084;44.716;10.218;2022-07-17T17:10:24;7.18;;;3.33;;
32693;SDS011;19084;44.716;10.218;2022-07-17T17:12:57;7.45;;;3.35;;
32693;SDS011;19084;44.716;10.218;2022-07-17T17:15:31;8.30;;;3.40;;
32693;SDS011;19084;44.716;10.218;2022-07-17T17:18:05;6.90;;;3.60;;
32693;SDS011;19084;44.716;10.218;2022-07-17T17:20:39;10.63;;;4.05;;
32693;SDS011;19084;44.716;10.218;2022-07-17T17:23:13;8.07;;;3.78;;
32693;SDS011;19084;44.716;10.218;2022-07-17T17:25:49;6.57;;;3.60;;
32693;SDS011;19084;44.716;10.218;2022-07-17T17:49:09;6.00;;;3.35;;
32693;SDS011;19084;44.716;10.218;2022-07-17T18:19:41;11.93;;;3.72;;
32693;SDS011;19084;44.716;10.218;2022-07-17T18:22:21;9.43;;;3.97;;
32693;SDS011;19084;44.716;10.218;2022-07-17T18:37:40;8.65;;;3.78;;
32693;SDS011;19084;44.716;10.218;2022-07-17T18:55:23;7.20;;;3.85;;
32693;SDS011;19084;44.716;10.218;2022-07-17T19:06:54;7.63;;;3.90;;
32693;SDS011;19084;44.716;10.218;2022-07-17T19:09:30;11.23;;;4.65;;
32693;SDS011;19084;44.716;10.218;2022-07-17T19:12:04;10.60;;;4.45;;
32693;SDS011;19084;44.716;10.218;2022-07-17T19:14:39;9.85;;;4.90;;
32693;SDS011;19084;44.716;10.218;2022-07-17T19:17:15;9.85;;;4.88;;
32693;SDS011;19084;44.716;10.218;2022-07-17T19:19:50;8.73;;;4.20;;
32693;SDS011;19084;44.716;10.218;2022-07-17T19:22:27;12.05;;;3.95;;
32693;SDS011;19084;44.716;10.218;2022-07-17T19:27:38;10.73;;;3.65;;
32693;SDS011;19084;44.716;10.218;2022-07-17T19:30:12;8.20;;;3.30;;
32693;SDS011;19084;44.716;10.218;2022-07-17T19:32:50;7.43;;;3.40;;
32693;SDS011;19084;44.716;10.218;2022-07-17T19:35:23;9.85;;;3.60;;
32693;SDS011;19084;44.716;10.218;2022-07-17T19:37:59;9.27;;;3.50;;
32693;SDS011;19084;44.716;10.218;2022-07-17T19:46:36;11.75;;;3.92;;
32693;SDS011;19084;44.716;10.218;2022-07-17T19:49:10;9.35;;;3.20;;
32693;SDS011;19084;44.716;10.218;2022-07-17T19:51:45;10.07;;;3.72;;
32693;SDS011;19084;44.716;10.218;2022-07-17T19:54:20;8.05;;;3.83;;
32693;SDS011;19084;44.716;10.218;2022-07-17T19:56:53;8.77;;;3.55;;
32693;SDS011;19084;44.716;10.218;2022-07-17T19:59:36;11.70;;;4.15;;
32693;SDS011;19084;44.716;10.218;2022-07-17T20:02:28;11.18;;;3.95;;
32693;SDS011;19084;44.716;10.218;2022-07-17T20:05:08;12.77;;;3.90;;
32693;SDS011;19084;44.716;10.218;2022-07-17T20:08:04;11.27;;;4.18;;
32693;SDS011;19084;44.716;10.218;2022-07-17T20:10:39;8.70;;;3.72;;
32693;SDS011;19084;44.716;10.218;2022-07-17T20:13:13;9.30;;;3.50;;
32693;SDS011;19084;44.716;10.218;2022-07-17T20:15:49;7.82;;;4.32;;
32693;SDS011;19084;44.716;10.218;2022-07-17T20:18:30;9.55;;;3.97;;
32693;SDS011;19084;44.716;10.218;2022-07-17T20:21:05;7.38;;;3.90;;
32693;SDS011;19084;44.716;10.218;2022-07-17T20:23:42;8.70;;;3.45;;
32693;SDS011;19084;44.716;10.218;2022-07-17T20:26:44;8.52;;;3.88;;
32693;SDS011;19084;44.716;10.218;2022-07-17T20:29:18;10.43;;;3.83;;
32693;SDS011;19084;44.716;10.218;2022-07-17T20:31:52;10.32;;;4.57;;
32693;SDS011;19084;44.716;10.218;2022-07-17T20:34:25;6.90;;;4.10;;
32693;SDS011;19084;44.716;10.218;2022-07-17T20:37:03;8.38;;;3.80;;
32693;SDS011;19084;44.716;10.218;2022-07-17T20:39:55;7.75;;;3.65;;
32693;SDS011;19084;44.716;10.218;2022-07-17T20:49:16;17.65;;;4.10;;
32693;SDS011;19084;44.716;10.218;2022-07-17T20:51:50;9.43;;;3.35;;
32693;SDS011;19084;44.716;10.218;2022-07-17T20:54:24;10.13;;;3.30;;
32693;SDS011;19084;44.716;10.218;2022-07-17T20:56:57;6.85;;;3.22;;
32693;SDS011;19084;44.716;10.218;2022-07-17T20:59:31;9.20;;;3.67;;
32693;SDS011;19084;44.716;10.218;2022-07-17T21:02:14;6.90;;;3.28;;
32693;SDS011;19084;44.716;10.218;2022-07-17T21:04:47;10.73;;;3.50;;
32693;SDS011;19084;44.716;10.218;2022-07-17T21:07:21;9.93;;;3.40;;
32693;SDS011;19084;44.716;10.218;2022-07-17T21:09:56;9.10;;;3.20;;
32693;SDS011;19084;44.716;10.218;2022-07-17T21:12:29;5.63;;;2.97;;
32693;SDS011;19084;44.716;10.218;2022-07-17T21:15:01;9.95;;;3.47;;
32693;SDS011;19084;44.716;10.218;2022-07-17T21:17:34;7.63;;;3.60;;
32693;SDS011;19084;44.716;10.218;2022-07-17T21:20:07;7.32;;;3.53;;
32693;SDS011;19084;44.716;10.218;2022-07-17T21:22:40;6.03;;;3.30;;
32693;SDS011;19084;44.716;10.218;2022-07-17T21:25:13;7.53;;;2.97;;
32693;SDS011;19084;44.716;10.218;2022-07-17T21:27:46;9.40;;;3.63;;
32693;SDS011;19084;44.716;10.218;2022-07-17T21:30:19;6.50;;;3.20;;
32693;SDS011;19084;44.716;10.218;2022-07-17T21:32:55;11.95;;;3.60;;
32693;SDS011;19084;44.716;10.218;2022-07-17T21:35:28;9.13;;;4.10;;
32693;SDS011;19084;44.716;10.218;2022-07-17T21:38:01;8.98;;;3.42;;
32693;SDS011;19084;44.716;10.218;2022-07-17T21:40:34;12.23;;;3.65;;
32693;SDS011;19084;44.716;10.218;2022-07-17T21:43:08;8.30;;;3.42;;
32693;SDS011;19084;44.716;10.218;2022-07-17T21:45:41;9.15;;;3.78;;
32693;SDS011;19084;44.716;10.218;2022-07-17T21:48:14;9.05;;;3.38;;
